createdAt,value
2023-04-22T00:01:45.667Z,100095.88
2023-04-22T00:04:19.224Z,100092.53
2023-04-22T00:06:47.986Z,100086.50
2023-04-22T00:09:16.625Z,100102.09
2023-04-22T00:11:45.042Z,100094.44
2023-04-22T00:14:13.819Z,100101.03
2023-04-22T00:16:42.316Z,100094.03
2023-04-22T00:19:10.714Z,100096.66
2023-04-22T00:21:41.083Z,100098.75
2023-04-22T00:24:14.204Z,100104.63
2023-04-22T00:26:43.005Z,100092.75
2023-04-22T00:29:11.385Z,100098.34
2023-04-22T00:31:39.901Z,100099.66
2023-04-22T00:34:08.950Z,100099.28
2023-04-22T00:36:37.474Z,100099.03
2023-04-22T00:39:08.212Z,100088.22
2023-04-22T00:41:37.264Z,100091.84
2023-04-22T00:44:06.257Z,100085.88
2023-04-22T00:46:36.070Z,100091.31
2023-04-22T00:49:04.476Z,100093.06
2023-04-22T00:51:33.058Z,100089.03
2023-04-22T00:54:02.192Z,100090.31
2023-04-22T00:56:36.099Z,100095.22
2023-04-22T00:59:04.800Z,100089.69
2023-04-22T01:01:34.657Z,100096.13
2023-04-22T01:04:04.751Z,100099.06
2023-04-22T01:06:33.672Z,100107.84
2023-04-22T01:09:02.174Z,100117.34
2023-04-22T01:11:32.414Z,100104.72
2023-04-22T01:14:01.022Z,100107.50
2023-04-22T01:16:31.392Z,100124.34
2023-04-22T01:18:59.998Z,100123.13
2023-04-22T01:21:29.946Z,100111.72
2023-04-22T01:23:59.980Z,100102.13
2023-04-22T01:26:28.473Z,100114.50
2023-04-22T01:28:57.366Z,100100.06
2023-04-22T01:31:26.137Z,100113.66
2023-04-22T01:33:54.955Z,100107.69
2023-04-22T01:36:23.603Z,100105.50
2023-04-22T01:38:52.841Z,100103.97
2023-04-22T01:41:22.900Z,100105.09
2023-04-22T01:43:52.200Z,100100.78
2023-04-22T01:46:21.131Z,100108.03
2023-04-22T01:48:51.698Z,100101.19
2023-04-22T01:51:21.724Z,100097.88
2023-04-22T01:53:50.762Z,100105.09
2023-04-22T01:56:19.652Z,100096.38
2023-04-22T01:58:49.649Z,100100.97
2023-04-22T02:01:19.088Z,100090.69
2023-04-22T02:03:47.870Z,100094.31
2023-04-22T02:06:19.225Z,100086.66
2023-04-22T02:08:47.826Z,100087.66
2023-04-22T02:11:16.403Z,100081.66
2023-04-22T02:13:45.157Z,100087.41
2023-04-22T02:16:15.218Z,100080.16
2023-04-22T02:18:43.755Z,100087.41
2023-04-22T02:21:12.300Z,100089.63
2023-04-22T02:23:41.856Z,100087.56
2023-04-22T02:26:10.397Z,100079.91
2023-04-22T02:28:38.890Z,100082.69
2023-04-22T02:31:07.777Z,100082.16
2023-04-22T02:33:37.873Z,100071.19
2023-04-22T02:36:06.582Z,100079.09
2023-04-22T02:38:35.114Z,100071.03
2023-04-22T02:41:04.070Z,100077.84
2023-04-22T02:43:35.414Z,100084.38
2023-04-22T02:46:03.927Z,100077.69
2023-04-22T02:48:32.415Z,100072.00
2023-04-22T02:51:03.088Z,100066.31
2023-04-22T02:53:31.732Z,100065.78
2023-04-22T02:56:00.445Z,100058.69
2023-04-22T02:58:28.968Z,100064.09
2023-04-22T03:00:58.420Z,100064.25
2023-04-22T03:03:28.033Z,100061.88
2023-04-22T03:05:56.737Z,100068.25
2023-04-22T03:08:27.347Z,100063.41
2023-04-22T03:10:55.832Z,100057.00
2023-04-22T03:13:24.243Z,100056.84
2023-04-22T03:15:52.728Z,100064.47
2023-04-22T03:18:21.411Z,100064.47
2023-04-22T03:20:50.807Z,100062.28
2023-04-22T03:23:19.395Z,100055.72
2023-04-22T03:25:49.428Z,100062.66
2023-04-22T03:28:17.923Z,100058.63
2023-04-22T03:30:47.614Z,100053.63
2023-04-22T03:33:16.161Z,100054.75
2023-04-22T03:35:44.902Z,100054.19
2023-04-22T03:38:13.483Z,100050.84
2023-04-22T03:40:42.386Z,100050.84
2023-04-22T03:43:12.251Z,100043.19
2023-04-22T03:45:41.153Z,100052.94
2023-04-22T03:48:09.812Z,100054.84
2023-04-22T03:50:38.474Z,100055.94
2023-04-22T03:53:06.961Z,100052.59
2023-04-22T03:55:36.299Z,100050.22
2023-04-22T03:58:04.761Z,100047.84
2023-04-22T04:00:35.100Z,100048.84
2023-04-22T04:03:03.892Z,100035.75
2023-04-22T04:05:32.663Z,100047.59
2023-04-22T04:08:01.470Z,100028.66
2023-04-22T04:10:30.279Z,100049.91
2023-04-22T04:12:59.151Z,100049.34
2023-04-22T04:15:27.641Z,100040.59
2023-04-22T04:17:58.359Z,100042.53
2023-04-22T04:20:26.963Z,100034.19
2023-04-22T04:22:55.453Z,100049.47
2023-04-22T04:25:24.079Z,100047.81
2023-04-22T04:27:53.241Z,100055.72
2023-04-22T04:30:21.862Z,100053.94
2023-04-22T04:32:52.506Z,100065.28
2023-04-22T04:35:24.038Z,100057.38
2023-04-22T04:37:54.047Z,100056.56
2023-04-22T04:40:23.546Z,100045.88
2023-04-22T04:42:53.369Z,100057.25
2023-04-22T04:45:22.562Z,100059.03
2023-04-22T04:47:52.969Z,100056.16
2023-04-22T04:50:23.749Z,100048.50
2023-04-22T04:52:53.011Z,100054.22
2023-04-22T04:55:21.827Z,100062.00
2023-04-22T04:57:50.627Z,100066.03
2023-04-22T05:00:19.460Z,100057.84
2023-04-22T05:02:48.187Z,100062.00
2023-04-22T05:05:17.018Z,100058.13
2023-04-22T05:07:47.037Z,100059.81
2023-04-22T05:10:15.615Z,100062.31
2023-04-22T05:12:44.415Z,100055.94
2023-04-22T05:15:13.296Z,100064.28
2023-04-22T05:17:41.955Z,100064.88
2023-04-22T05:20:11.151Z,100068.22
2023-04-22T05:22:41.655Z,100065.16
2023-04-22T05:25:12.532Z,100068.22
2023-04-22T05:27:42.380Z,100071.84
2023-04-22T05:30:12.118Z,100067.13
2023-04-22T05:32:40.621Z,100078.28
2023-04-22T05:35:10.417Z,100075.78
2023-04-22T05:37:38.967Z,100070.38
2023-04-22T05:40:08.847Z,100079.38
2023-04-22T05:42:41.129Z,100071.88
2023-04-22T05:45:10.711Z,100083.28
2023-04-22T05:47:39.201Z,100081.03
2023-04-22T05:50:08.919Z,100066.31
2023-04-22T05:52:37.429Z,100072.69
2023-04-22T05:55:07.209Z,100062.09
2023-04-22T05:57:35.829Z,100065.13
2023-04-22T06:00:07.308Z,100049.72
2023-04-22T06:02:36.026Z,100071.25
2023-04-22T06:05:05.205Z,100065.09
2023-04-22T06:07:34.122Z,100060.72
2023-04-22T06:12:51.062Z,100075.97
2023-04-22T06:15:21.619Z,100065.81
2023-04-22T06:17:50.411Z,100065.72
2023-04-22T06:20:18.996Z,100069.69
2023-04-22T06:22:47.869Z,100074.50
2023-04-22T06:25:16.465Z,100074.47
2023-04-22T06:27:45.365Z,100070.34
2023-04-22T06:30:14.363Z,100072.75
2023-04-22T06:32:44.410Z,100067.06
2023-04-22T06:35:13.016Z,100068.72
2023-04-22T06:37:41.662Z,100061.72
2023-04-22T06:40:11.441Z,100059.59
2023-04-22T06:42:39.910Z,100069.28
2023-04-22T06:45:13.069Z,100070.13
2023-04-22T06:47:41.818Z,100072.50
2023-04-22T06:50:13.603Z,100051.59
2023-04-22T06:52:42.189Z,100068.25
2023-04-22T06:55:11.501Z,100067.28
2023-04-22T06:57:40.055Z,100067.81
2023-04-22T07:00:09.899Z,100068.72
2023-04-22T07:02:38.805Z,100068.78
2023-04-22T07:05:07.550Z,100071.47
2023-04-22T07:07:37.646Z,100073.78
2023-04-22T07:10:06.987Z,100068.94
2023-04-22T07:12:35.500Z,100079.28
2023-04-22T07:15:03.956Z,100072.28
2023-04-22T07:17:32.505Z,100077.47
2023-04-22T07:20:00.968Z,100079.94
2023-04-22T07:22:29.706Z,100078.28
2023-04-22T07:24:59.789Z,100074.25
2023-04-22T07:27:28.843Z,100076.25
2023-04-22T07:29:57.530Z,100071.91
2023-04-22T07:32:26.453Z,100082.19
2023-04-22T07:34:54.984Z,100080.34
2023-04-22T07:37:23.819Z,100082.19
2023-04-22T07:39:52.356Z,100062.75
2023-04-22T07:42:22.205Z,100077.19
2023-04-22T07:44:50.621Z,100077.31
2023-04-22T07:47:19.186Z,100068.50
2023-04-22T07:49:47.633Z,100053.66
2023-04-22T07:52:16.028Z,100074.41
2023-04-22T07:54:44.471Z,100077.69
2023-04-22T07:57:13.106Z,100075.66
2023-04-22T07:59:43.045Z,100074.44
2023-04-22T08:02:11.576Z,100071.88
2023-04-22T08:04:40.314Z,100068.19
2023-04-22T08:07:26.902Z,100064.69
2023-04-22T08:09:57.793Z,100067.56
2023-04-22T08:12:26.343Z,100066.13
2023-04-22T08:14:58.239Z,100074.41
2023-04-22T08:17:26.934Z,100067.72
2023-04-22T08:19:55.538Z,100052.00
2023-04-22T08:22:24.150Z,100067.84
2023-04-22T08:24:52.595Z,100058.38
2023-04-22T08:27:23.099Z,100057.56
2023-04-22T08:29:51.605Z,100063.00
2023-04-22T08:32:23.481Z,100066.47
2023-04-22T08:34:52.141Z,100061.75
2023-04-22T08:37:22.682Z,100055.88
2023-04-22T08:39:51.369Z,100060.66
2023-04-22T08:42:23.004Z,100063.47
2023-04-22T08:44:52.400Z,100066.00
2023-04-22T08:47:23.555Z,100065.78
2023-04-22T08:49:55.019Z,100056.59
2023-04-22T08:52:23.884Z,100053.78
2023-04-22T08:54:56.000Z,100054.66
2023-04-22T08:57:25.171Z,100058.84
2023-04-22T08:59:55.716Z,100058.91
2023-04-22T09:02:26.488Z,100063.09
2023-04-22T09:04:55.330Z,100066.41
2023-04-22T09:07:26.099Z,100054.34
2023-04-22T09:09:56.172Z,100052.13
2023-04-22T09:12:25.220Z,100057.47
2023-04-22T09:14:54.785Z,100053.84
2023-04-22T09:17:33.659Z,100062.97
2023-04-22T09:20:04.783Z,100053.50
2023-04-22T09:22:40.414Z,100047.63
2023-04-22T09:25:18.593Z,100054.88
2023-04-22T09:27:51.179Z,100048.69
2023-04-22T09:30:20.589Z,100051.84
2023-04-22T09:32:58.224Z,100046.69
2023-04-22T09:35:31.293Z,100044.19
2023-04-22T09:38:01.024Z,100048.94
2023-04-22T09:40:30.464Z,100042.91
2023-04-22T09:43:02.287Z,100033.38
2023-04-22T09:45:32.521Z,100041.00
2023-04-22T09:48:07.213Z,100035.38
2023-04-22T09:50:35.659Z,100035.16
2023-04-22T09:53:05.451Z,100026.22
2023-04-22T09:55:36.139Z,100030.91
2023-04-22T09:58:09.039Z,100028.13
2023-04-22T10:00:41.368Z,100025.81
2023-04-22T10:03:11.448Z,100032.22
2023-04-22T10:05:41.755Z,100025.06
2023-04-22T10:08:11.780Z,100024.88
2023-04-22T10:10:41.337Z,100029.22
2023-04-22T10:13:10.029Z,100033.56
2023-04-22T10:15:41.403Z,100028.09
2023-04-22T10:18:15.991Z,100029.91
2023-04-22T10:20:45.629Z,100027.53
2023-04-22T10:23:15.956Z,100031.53
2023-04-22T10:25:44.485Z,100025.53
2023-04-22T10:28:14.666Z,100014.03
2023-04-22T10:30:43.393Z,100015.00
2023-04-22T10:33:42.224Z,100016.78
2023-04-22T10:36:17.256Z,100008.72
2023-04-22T10:39:22.470Z,100006.56
2023-04-22T10:41:56.097Z,100007.28
2023-04-22T10:44:24.880Z,100014.88
2023-04-22T10:47:03.466Z,100002.94
2023-04-22T10:49:35.678Z,100004.16
2023-04-22T10:52:05.465Z,99996.75
2023-04-22T10:55:02.966Z,100003.72
2023-04-22T10:57:42.101Z,99996.66
2023-04-22T11:00:52.432Z,99996.03
2023-04-22T11:03:28.754Z,99993.91
2023-04-22T11:06:18.671Z,99988.88
2023-04-22T11:08:48.683Z,99982.13
2023-04-22T11:11:19.573Z,99980.03
2023-04-22T11:13:51.002Z,99979.56
2023-04-22T11:16:23.292Z,99977.19
2023-04-22T11:18:52.676Z,99971.41
2023-04-22T11:21:22.974Z,99971.03
2023-04-22T11:23:53.479Z,99964.34
2023-04-22T11:26:35.583Z,99965.09
2023-04-22T11:29:04.314Z,99967.31
2023-04-22T11:31:32.789Z,99966.94
2023-04-22T11:34:01.412Z,99959.34
2023-04-22T11:36:31.815Z,99959.25
2023-04-22T11:39:00.532Z,99953.06
2023-04-22T11:41:30.323Z,99949.56
2023-04-22T11:43:59.150Z,99944.97
2023-04-22T11:46:32.419Z,99940.47
2023-04-22T11:49:14.298Z,99949.56
2023-04-22T11:51:55.590Z,99943.72
2023-04-22T11:54:33.997Z,99944.16
2023-04-22T11:57:04.564Z,99936.53
2023-04-22T11:59:33.106Z,99950.63
2023-04-22T12:02:01.827Z,99945.56
2023-04-22T12:04:30.229Z,99940.50
2023-04-22T12:07:00.268Z,99942.06
2023-04-22T12:09:30.075Z,99935.13
2023-04-22T12:11:58.587Z,99940.53
2023-04-22T12:14:33.437Z,99945.81
2023-04-22T12:17:05.979Z,99925.81
2023-04-22T12:19:34.415Z,99921.00
2023-04-22T12:22:04.761Z,99926.03
2023-04-22T12:24:33.354Z,99930.41
2023-04-22T12:27:02.333Z,99932.16
2023-04-22T12:29:32.547Z,99932.06
2023-04-22T12:32:03.163Z,99923.78
2023-04-22T12:34:31.871Z,99922.13
2023-04-22T12:37:01.258Z,99918.66
2023-04-22T12:39:32.649Z,99924.47
2023-04-22T12:42:01.145Z,99926.09
2023-04-22T12:44:30.943Z,99914.28
2023-04-22T12:47:00.038Z,99914.34
2023-04-22T12:49:28.577Z,99903.78
2023-04-22T12:51:57.322Z,99909.59
2023-04-22T12:54:26.096Z,99906.19
2023-04-22T12:56:58.076Z,99893.66
2023-04-22T12:59:27.078Z,99890.53
2023-04-22T13:01:56.509Z,99892.06
2023-04-22T13:04:25.228Z,99885.03
2023-04-22T13:06:56.633Z,99882.53
2023-04-22T13:09:27.654Z,99877.13
2023-04-22T13:11:58.584Z,99881.25
2023-04-22T13:14:33.287Z,99873.03
2023-04-22T13:17:05.217Z,99881.91
2023-04-22T13:19:35.667Z,99861.25
2023-04-22T13:22:04.654Z,99869.56
2023-04-22T13:24:33.736Z,99856.56
2023-04-22T13:27:04.696Z,99852.72
2023-04-22T13:29:33.479Z,99857.00
2023-04-22T13:32:01.981Z,99840.56
2023-04-22T13:34:30.664Z,99851.78
2023-04-22T13:37:00.022Z,99855.13
2023-04-22T13:39:29.857Z,99856.97
2023-04-22T13:41:58.684Z,99844.50
2023-04-22T13:44:29.336Z,99855.22
2023-04-22T13:46:58.060Z,99851.66
2023-04-22T13:49:27.686Z,99855.25
2023-04-22T13:51:56.722Z,99851.25
2023-04-22T13:54:26.306Z,99843.53
2023-04-22T13:56:55.118Z,99850.19
2023-04-22T13:59:24.302Z,99835.31
2023-04-22T14:01:54.109Z,99834.81
2023-04-22T14:04:22.727Z,99844.41
2023-04-22T14:06:51.585Z,99838.63
2023-04-22T14:09:20.200Z,99841.19
2023-04-22T14:11:48.914Z,99837.38
2023-04-22T14:14:17.926Z,99838.69
2023-04-22T14:16:46.509Z,99835.81
2023-04-22T14:19:17.130Z,99829.00
2023-04-22T14:21:46.001Z,99826.56
2023-04-22T14:24:14.694Z,99828.22
2023-04-22T14:26:43.191Z,99828.63
2023-04-22T14:29:11.963Z,99824.03
2023-04-22T14:31:40.700Z,99819.63
2023-04-22T14:34:09.456Z,99813.56
2023-04-22T14:36:39.403Z,99818.91
2023-04-22T14:39:07.966Z,99814.63
2023-04-22T14:41:37.157Z,99809.06
2023-04-22T14:44:05.825Z,99802.97
2023-04-22T14:46:35.256Z,99807.38
2023-04-22T14:49:03.774Z,99808.06
2023-04-22T14:51:32.880Z,99802.47
2023-04-22T14:54:03.268Z,99801.31
2023-04-22T14:56:31.947Z,99802.59
2023-04-22T14:59:00.434Z,99793.97
2023-04-22T15:01:29.165Z,99791.03
2023-04-22T15:04:03.323Z,99796.09
2023-04-22T15:06:33.052Z,99794.59
2023-04-22T15:09:03.052Z,99787.25
2023-04-22T15:11:35.010Z,99779.78
2023-04-22T15:14:03.501Z,99794.16
2023-04-22T15:16:32.145Z,99793.88
2023-04-22T15:19:01.835Z,99782.84
2023-04-22T15:21:30.683Z,99784.75
2023-04-22T15:23:59.236Z,99782.97
2023-04-22T15:26:29.233Z,99779.47
2023-04-22T15:28:57.638Z,99778.59
2023-04-22T15:31:26.990Z,99779.91
2023-04-22T15:33:56.463Z,99777.56
2023-04-22T15:36:25.361Z,99774.44
2023-04-22T15:38:56.612Z,99778.50
2023-04-22T15:41:25.578Z,99779.06
2023-04-22T15:43:55.417Z,99775.06
2023-04-22T15:46:24.640Z,99775.44
2023-04-22T15:48:53.097Z,99772.84
2023-04-22T15:51:22.080Z,99780.41
2023-04-22T15:53:50.987Z,99770.72
2023-04-22T15:56:19.650Z,99768.00
2023-04-22T15:58:48.085Z,99769.41
2023-04-22T16:01:19.744Z,99760.72
2023-04-22T16:03:49.492Z,99759.78
2023-04-22T16:06:18.827Z,99760.03
2023-04-22T16:08:47.938Z,99762.16
2023-04-22T16:11:17.443Z,99757.81
2023-04-22T16:13:46.554Z,99751.69
2023-04-22T16:16:15.052Z,99758.47
2023-04-22T16:18:45.068Z,99757.50
2023-04-22T16:21:13.638Z,99758.72
2023-04-22T16:23:42.155Z,99755.13
2023-04-22T16:26:11.074Z,99754.63
2023-04-22T16:28:39.507Z,99750.28
2023-04-22T16:33:38.043Z,99740.03
2023-04-22T16:36:10.472Z,99737.25
2023-04-22T16:38:44.553Z,99736.00
2023-04-22T16:41:20.496Z,99735.09
2023-04-22T16:43:48.941Z,99725.50
2023-04-22T16:46:22.879Z,99727.03
2023-04-22T16:48:52.252Z,99733.19
2023-04-22T16:51:22.752Z,99729.97
2023-04-22T16:53:51.894Z,99735.69
2023-04-22T16:56:20.408Z,99723.53
2023-04-22T16:58:48.784Z,99726.69
2023-04-22T17:01:17.654Z,99725.25
2023-04-22T17:03:47.317Z,99722.44
2023-04-22T17:06:16.533Z,99724.34
2023-04-22T17:08:47.023Z,99720.69
2023-04-22T17:11:15.433Z,99722.47
2023-04-22T17:13:43.910Z,99724.56
2023-04-22T17:16:12.505Z,99721.47
2023-04-22T17:18:41.205Z,99717.91
2023-04-22T17:21:09.653Z,99711.75
2023-04-22T17:23:38.618Z,99711.75
2023-04-22T17:26:08.681Z,99705.88
2023-04-22T17:28:37.159Z,99708.34
2023-04-22T17:31:05.785Z,99701.63
2023-04-22T17:33:37.127Z,99707.88
2023-04-22T17:36:05.962Z,99709.50
2023-04-22T17:38:36.072Z,99706.72
2023-04-22T17:41:05.268Z,99711.16
2023-04-22T17:43:35.450Z,99705.94
2023-04-22T17:46:04.135Z,99707.09
2023-04-22T17:48:32.855Z,99715.97
2023-04-22T17:51:05.311Z,99713.97
2023-04-22T17:53:34.127Z,99716.34
2023-04-22T17:56:02.632Z,99715.28
2023-04-22T17:58:31.526Z,99713.53
2023-04-22T18:01:10.348Z,99711.31
2023-04-22T18:03:46.261Z,99717.06
2023-04-22T18:06:17.112Z,99713.91
2023-04-22T18:08:46.054Z,99722.38
2023-04-22T18:11:20.870Z,99722.25
2023-04-22T18:13:50.571Z,99722.75
2023-04-22T18:16:20.466Z,99722.50
2023-04-22T18:18:48.865Z,99713.81
2023-04-22T18:21:17.316Z,99728.63
2023-04-22T18:23:45.924Z,99724.63
2023-04-22T18:26:14.562Z,99716.28
2023-04-22T18:28:44.765Z,99721.31
2023-04-22T18:31:13.284Z,99724.66
2023-04-22T18:33:43.367Z,99729.31
2023-04-22T18:36:12.026Z,99729.28
2023-04-22T18:38:40.753Z,99737.22
2023-04-22T18:41:13.208Z,99742.72
2023-04-22T18:43:41.670Z,99736.44
2023-04-22T18:46:10.417Z,99732.75
2023-04-22T18:48:39.126Z,99730.56
2023-04-22T18:51:09.446Z,99722.66
2023-04-22T18:53:38.960Z,99728.81
2023-04-22T18:56:07.780Z,99726.25
2023-04-22T18:58:36.539Z,99719.34
2023-04-22T19:01:05.907Z,99725.31
2023-04-22T19:03:34.648Z,99728.91
2023-04-22T19:06:03.234Z,99723.63
2023-04-22T19:08:33.117Z,99722.25
2023-04-22T19:11:01.973Z,99728.50
2023-04-22T19:13:31.898Z,99726.09
2023-04-22T19:16:00.579Z,99724.97
2023-04-22T19:18:29.226Z,99729.72
2023-04-22T19:20:58.326Z,99723.03
2023-04-22T19:23:26.797Z,99719.84
2023-04-22T19:25:56.991Z,99702.28
2023-04-22T19:28:25.505Z,99726.63
2023-04-22T19:30:54.284Z,99725.22
2023-04-22T19:33:22.743Z,99727.06
2023-04-22T19:35:51.709Z,99726.69
2023-04-22T19:38:22.576Z,99728.34
2023-04-22T19:40:51.028Z,99720.31
2023-04-22T19:43:22.040Z,99719.28
2023-04-22T19:45:50.788Z,99717.25
2023-04-22T19:48:19.869Z,99721.59
2023-04-22T19:50:50.262Z,99714.41
2023-04-22T19:53:20.328Z,99707.22
2023-04-22T19:55:49.152Z,99713.81
2023-04-22T19:58:18.207Z,99703.13
2023-04-22T20:00:49.608Z,99706.69
2023-04-22T20:03:18.719Z,99698.44
2023-04-22T20:05:50.018Z,99696.78
2023-04-22T20:08:20.921Z,99707.09
2023-04-22T20:10:50.569Z,99702.56
2023-04-22T20:13:19.619Z,99708.31
2023-04-22T20:15:49.900Z,99706.69
2023-04-22T20:18:19.880Z,99702.16
2023-04-22T20:20:50.656Z,99703.81
2023-04-22T20:23:22.451Z,99701.72
2023-04-22T20:25:51.320Z,99708.31
2023-04-22T20:28:20.017Z,99703.34
2023-04-22T20:30:50.268Z,99697.56
2023-04-22T20:33:20.694Z,99698.94
2023-04-22T20:35:51.239Z,99706.94
2023-04-22T20:38:20.692Z,99697.25
2023-04-22T20:40:51.991Z,99695.41
2023-04-22T20:43:20.654Z,99699.06
2023-04-22T20:45:50.520Z,99704.75
2023-04-22T20:48:19.077Z,99708.22
2023-04-22T20:50:47.539Z,99706.09
2023-04-22T20:53:15.962Z,99700.09
2023-04-22T20:55:44.505Z,99699.63
2023-04-22T20:58:12.903Z,99696.09
2023-04-22T21:00:41.421Z,99697.09
2023-04-22T21:03:11.768Z,99688.34
2023-04-22T21:05:43.909Z,99697.13
2023-04-22T21:08:24.751Z,99682.28
2023-04-22T21:10:54.679Z,99690.06
2023-04-22T21:13:23.965Z,99698.22
2023-04-22T21:15:57.587Z,99689.31
2023-04-22T21:18:29.432Z,99693.78
2023-04-22T21:20:58.940Z,99698.81
2023-04-22T21:23:28.171Z,99696.66
2023-04-22T21:25:58.192Z,99698.25
2023-04-22T21:28:27.072Z,99697.56
2023-04-22T21:30:56.162Z,99700.34
2023-04-22T21:33:25.380Z,99697.00
2023-04-22T21:35:55.423Z,99699.38
2023-04-22T21:38:23.917Z,99698.44
2023-04-22T21:40:52.613Z,99707.81
2023-04-22T21:43:21.050Z,99705.09
2023-04-22T21:45:49.574Z,99698.66
2023-04-22T21:48:17.724Z,99695.75
2023-04-22T21:50:46.034Z,99700.16
2023-04-22T21:53:15.632Z,99705.06
2023-04-22T21:55:43.896Z,99701.66
2023-04-22T21:58:12.103Z,99701.59
2023-04-22T22:00:40.372Z,99696.16
2023-04-22T22:03:08.742Z,99690.13
2023-04-22T22:05:37.640Z,99697.84
2023-04-22T22:08:05.978Z,99704.28
2023-04-22T22:10:35.851Z,99696.53
2023-04-22T22:13:04.163Z,99689.28
2023-04-22T22:15:32.406Z,99701.31
2023-04-22T22:18:00.889Z,99693.03
2023-04-22T22:20:29.892Z,99695.44
2023-04-22T22:22:58.272Z,99696.13
2023-04-22T22:25:26.805Z,99698.03
2023-04-22T22:27:56.579Z,99689.66
2023-04-22T22:30:25.062Z,99692.03
2023-04-22T22:32:53.561Z,99692.75
2023-04-22T22:35:21.980Z,99696.97
2023-04-22T22:37:50.426Z,99701.81
2023-04-22T22:40:25.051Z,99703.19
2023-04-22T22:42:53.726Z,99698.59
2023-04-22T22:45:23.965Z,99692.78
2023-04-22T22:47:53.828Z,99691.00
2023-04-22T22:50:22.462Z,99691.91
2023-04-22T22:52:50.872Z,99691.25
2023-04-22T22:55:20.111Z,99695.91
2023-04-22T22:57:48.597Z,99691.75
2023-04-22T23:00:17.750Z,99692.31
2023-04-22T23:02:48.145Z,99691.16
2023-04-22T23:05:16.768Z,99692.88
2023-04-22T23:07:45.349Z,99691.13
2023-04-22T23:10:14.092Z,99694.28
2023-04-22T23:12:42.588Z,99692.16
2023-04-22T23:15:11.887Z,99692.69
2023-04-22T23:17:40.582Z,99690.38
2023-04-22T23:20:12.301Z,99681.41
2023-04-22T23:22:42.371Z,99684.59
2023-04-22T23:25:12.547Z,99673.66
2023-04-22T23:27:43.212Z,99682.44
2023-04-22T23:30:12.640Z,99674.84
2023-04-22T23:32:42.107Z,99680.50
2023-04-22T23:35:14.256Z,99684.50
2023-04-22T23:37:45.965Z,99680.22
2023-04-22T23:40:15.264Z,99681.72
2023-04-22T23:42:43.783Z,99678.59
2023-04-22T23:45:13.147Z,99667.66
2023-04-22T23:47:41.963Z,99675.31
2023-04-22T23:50:14.242Z,99674.00
2023-04-22T23:52:43.090Z,99674.03
2023-04-22T23:55:14.337Z,99675.72
2023-04-22T23:57:44.274Z,99661.19
